Impacts TAF Board INFO
FOR SITUATIONAL AWARENESS. NOT TO BE USED FOR FLIGHT PLANNING PURPOSES.
IDs:

KHUM - Houma/Terrebonne Arp, LA, US

Issued at 0530 UTC 18 Feb 2018
Updated at 0628 UTC 18 Feb 2018
Potential Impact None Slight Moderate High
Time<<18/19Z 18/20Z 18/21Z 18/22Z 18/23Z 19/00Z 19/01Z 19/02Z 19/03Z 19/04Z 19/05Z 19/06Z 19/07Z>>
Type PRVL PRVL PRVL PRVL PRVL PRVL PRVL PRVL PRVL PRVL PRVL
VIS >6 >6 >6 >6 >6 >6 >6 >6 4 4 4
CIG 35 35 35 35 35 35 120 120 -- -- --
Cover BKN BKN BKN BKN BKN BKN BKN BKN SCT SCT SCT
FltCat VFR VFR VFR VFR VFR VFR VFR VFR MVFR MVFR MVFR
WX -- -- -- -- -- -- -- -- BR BR BR
WDir 170 170 170 170 170 170 160 160 150 150 150
WSpd 6 6 6 6 6 6 6 6 5 5 5
WGst -- -- -- -- -- -- -- -- -- -- --

Raw TAF
KHUM 180530Z 1806/1906 00000KT 1/2SM FG OVC004
  FM181200 00000KT 2SM BR BKN015
  FM181500 VRB03KT P6SM BKN015 BKN025
  FM181700 17006KT P6SM BKN035
  FM190100 16006KT P6SM BKN120
  FM190300 15005KT 4SM BR SCT120


METAR Board
Radar Display
Forecast Discussion

FOR SITUATIONAL AWARENESS. NOT TO BE USED FOR FLIGHT PLANNING PURPOSES.